Time;durP1;ratioP1;P1;durP2;ratioP2;P2;SDS_P1;SDS_P2;PMS_P1;PMS_P2;Temp;Humidity;BMP_temperature;BMP_pressure;BME280_temperature;BME280_humidity;BME280_pressure;Samples;Min_cycle;Max_cycle;Signal;HPM_P1;HPM_P2
2023/04/16 00:02:27;;;;;;;11.10;5.25;;;;;;;-147.53;100.00;57128.34;10465059;28;20072;-79
2023/04/16 00:07:30;;;;;;;10.57;5.55;;;;;;;-147.53;100.00;57128.34;10462747;28;20048;-79
2023/04/16 00:12:32;;;;;;;12.13;5.80;;;;;;;-147.53;100.00;57128.34;10465972;28;20040;-79
2023/04/16 00:17:33;;;;;;;11.32;5.70;;;;;;;-147.53;100.00;57128.34;10471215;28;20416;-79
2023/04/16 00:22:35;;;;;;;12.05;5.97;;;;;;;-147.53;100.00;57128.34;10465596;28;20063;-79
2023/04/16 00:27:37;;;;;;;12.43;5.93;;;;;;;-147.53;100.00;57128.34;10455001;28;20492;-79
2023/04/16 00:32:38;;;;;;;8.88;4.40;;;;;;;-147.53;100.00;57128.34;10462398;28;20424;-79
2023/04/16 00:37:40;;;;;;;13.15;6.40;;;;;;;-147.53;100.00;57128.34;10446944;28;20083;-79
2023/04/16 00:42:42;;;;;;;10.18;5.20;;;;;;;-147.53;100.00;57128.34;10454709;28;20070;-80
2023/04/16 00:47:44;;;;;;;9.07;4.72;;;;;;;-147.53;100.00;57128.34;10455359;28;20509;-79
2023/04/16 00:52:47;;;;;;;10.27;5.13;;;;;;;-147.53;100.00;57128.34;10469977;28;20049;-79
2023/04/16 00:57:49;;;;;;;9.23;5.00;;;;;;;-147.53;100.00;57128.34;10453739;28;20323;-79
2023/04/16 01:02:52;;;;;;;11.85;4.88;;;;;;;-147.53;100.00;57128.34;10460516;28;20052;-79
2023/04/16 01:07:59;;;;;;;10.32;5.72;;;;;;;-147.53;100.00;57128.34;10456838;28;20045;-79
2023/04/16 01:13:01;;;;;;;14.38;5.80;;;;;;;-147.53;100.00;57128.34;10461193;28;20544;-80
2023/04/16 01:18:12;;;;;;;12.15;4.82;;;;;;;-147.53;100.00;57128.34;10453408;28;20171;-79
2023/04/16 01:23:15;;;;;;;9.95;4.72;;;;;;;-147.53;100.00;57128.34;10452777;28;20467;-79
2023/04/16 01:28:17;;;;;;;9.23;4.80;;;;;;;-147.53;100.00;57128.34;10454131;28;20500;-78
2023/04/16 01:33:20;;;;;;;11.23;5.35;;;;;;;-147.53;100.00;57128.34;10440768;28;20040;-79
2023/04/16 01:38:22;;;;;;;11.55;6.10;;;;;;;-147.53;100.00;57128.34;10446644;28;20060;-79
2023/04/16 01:43:24;;;;;;;10.48;5.03;;;;;;;-147.53;100.00;57128.34;10452208;28;20041;-79
2023/04/16 01:48:25;;;;;;;10.45;4.90;;;;;;;-147.53;100.00;57128.34;10450814;28;20211;-79
2023/04/16 01:53:27;;;;;;;9.90;4.78;;;;;;;-147.53;100.00;57128.34;10437374;28;20076;-79
2023/04/16 01:58:30;;;;;;;14.00;5.50;;;;;;;-147.53;100.00;57128.34;10451187;28;20049;-79
2023/04/16 02:03:32;;;;;;;12.57;4.93;;;;;;;-147.53;100.00;57128.34;10444750;28;20136;-79
2023/04/16 02:08:34;;;;;;;9.45;5.18;;;;;;;-147.53;100.00;57128.34;10465597;28;20401;-79
2023/04/16 02:13:36;;;;;;;10.88;5.88;;;;;;;-147.53;100.00;57128.34;10484898;28;20127;-79
2023/04/16 02:18:38;;;;;;;9.63;5.03;;;;;;;-147.53;100.00;57128.34;10461232;28;20098;-79
2023/04/16 02:23:40;;;;;;;9.63;4.95;;;;;;;-147.53;100.00;57128.34;10460715;28;20151;-78
2023/04/16 02:28:43;;;;;;;8.65;4.72;;;;;;;-147.53;100.00;57128.34;10459892;28;20045;-78
2023/04/16 02:33:46;;;;;;;12.68;5.43;;;;;;;-147.53;100.00;57128.34;10466268;28;20041;-79
2023/04/16 02:38:49;;;;;;;11.57;5.70;;;;;;;-147.53;100.00;57128.34;10442338;28;20604;-80
2023/04/16 02:43:51;;;;;;;9.20;4.72;;;;;;;-147.53;100.00;57128.34;10450487;28;20037;-80
2023/04/16 02:48:53;;;;;;;10.15;5.05;;;;;;;-147.53;100.00;57128.34;10450965;28;20048;-79
2023/04/16 02:53:55;;;;;;;10.18;5.30;;;;;;;-147.53;100.00;57128.34;10466028;28;20401;-79
2023/04/16 02:58:57;;;;;;;14.80;5.88;;;;;;;-147.53;100.00;57128.34;10456925;28;20151;-79
2023/04/16 03:03:58;;;;;;;9.30;4.85;;;;;;;-147.53;100.00;57128.34;10447672;28;20055;-79
2023/04/16 03:09:00;;;;;;;12.55;5.15;;;;;;;-147.53;100.00;57128.34;10446384;28;20156;-80
2023/04/16 03:14:02;;;;;;;16.05;6.05;;;;;;;-147.53;100.00;57128.34;10458671;28;20085;-79
2023/04/16 03:19:04;;;;;;;12.52;6.00;;;;;;;-147.53;100.00;57128.34;10465730;28;20051;-79
2023/04/16 03:24:06;;;;;;;8.70;4.03;;;;;;;-147.53;100.00;57128.34;10445423;28;20049;-79
2023/04/16 03:29:08;;;;;;;11.70;5.28;;;;;;;-147.53;100.00;57128.34;10471908;28;20051;-79
2023/04/16 03:34:10;;;;;;;8.48;4.00;;;;;;;-147.53;100.00;57128.34;10449341;28;20212;-78
2023/04/16 03:39:13;;;;;;;9.85;4.65;;;;;;;-147.53;100.00;57128.34;10449221;28;20458;-78
2023/04/16 03:44:15;;;;;;;8.20;4.53;;;;;;;-147.53;100.00;57128.34;10429973;28;20157;-79
2023/04/16 03:49:20;;;;;;;11.48;4.72;;;;;;;-147.53;100.00;57128.34;10450348;28;20036;-78
2023/04/16 03:54:23;;;;;;;10.50;4.80;;;;;;;-147.53;100.00;57128.34;10447244;28;20319;-78
2023/04/16 03:59:34;;;;;;;12.27;5.10;;;;;;;-147.53;100.00;57128.34;10447782;28;20131;-79
2023/04/16 04:04:36;;;;;;;10.30;5.47;;;;;;;-147.53;100.00;57128.34;10451205;28;20121;-79
2023/04/16 04:09:39;;;;;;;11.73;5.18;;;;;;;-147.53;100.00;57128.34;10455161;28;20432;-79
2023/04/16 04:14:42;;;;;;;9.88;5.40;;;;;;;-147.53;100.00;57128.34;10435738;28;20519;-80
2023/04/16 04:19:44;;;;;;;13.15;6.60;;;;;;;-147.53;100.00;57128.34;10462983;28;20608;-79
2023/04/16 04:25:01;;;;;;;9.50;4.93;;;;;;;-147.53;100.00;57128.34;10438268;28;20041;-79
2023/04/16 04:30:06;;;;;;;10.63;5.38;;;;;;;-147.53;100.00;57128.34;10439504;28;20171;-79
2023/04/16 04:35:08;;;;;;;10.52;5.30;;;;;;;-147.53;100.00;57128.34;10436217;28;20517;-80
2023/04/16 04:40:11;;;;;;;12.85;5.93;;;;;;;-147.53;100.00;57128.34;10469708;28;20052;-79
2023/04/16 04:45:13;;;;;;;10.35;5.57;;;;;;;-147.53;100.00;57128.34;10443100;28;20064;-79
2023/04/16 04:50:16;;;;;;;8.45;4.60;;;;;;;-147.53;100.00;57128.34;10452917;28;20045;-79
2023/04/16 04:55:20;;;;;;;8.65;4.35;;;;;;;-147.53;100.00;57128.34;10448753;28;20037;-79
2023/04/16 05:00:22;;;;;;;14.63;5.28;;;;;;;-147.53;100.00;57128.34;10464382;28;20135;-78
2023/04/16 05:05:28;;;;;;;8.45;4.65;;;;;;;-147.53;100.00;57128.34;10468727;28;20115;-79
2023/04/16 05:10:29;;;;;;;11.25;5.57;;;;;;;-147.53;100.00;57128.34;10470146;28;20059;-79
2023/04/16 05:15:31;;;;;;;10.65;5.65;;;;;;;-147.53;100.00;57128.34;10457302;28;20033;-79
2023/04/16 05:20:33;;;;;;;12.77;5.85;;;;;;;-147.53;100.00;57128.34;10433983;28;20045;-79
2023/04/16 05:25:35;;;;;;;9.70;4.60;;;;;;;-147.53;100.00;57128.34;10435744;28;20528;-78
2023/04/16 05:30:37;;;;;;;11.68;4.70;;;;;;;-147.53;100.00;57128.34;10429740;28;20082;-78
2023/04/16 05:35:39;;;;;;;11.55;5.28;;;;;;;-147.53;100.00;57128.34;10436148;28;20033;-79
2023/04/16 05:40:42;;;;;;;9.65;4.55;;;;;;;-147.53;100.00;57128.34;10446207;28;20135;-78
2023/04/16 05:45:44;;;;;;;9.95;5.32;;;;;;;-147.53;100.00;57128.34;10469288;28;20048;-78
2023/04/16 05:50:46;;;;;;;9.48;4.43;;;;;;;-147.53;100.00;57128.34;10448927;28;20044;-80
2023/04/16 05:55:48;;;;;;;10.50;5.00;;;;;;;-147.53;100.00;57128.34;10460584;28;20505;-77
2023/04/16 06:00:50;;;;;;;9.85;4.85;;;;;;;-147.53;100.00;57128.34;10425129;28;20056;-79
2023/04/16 06:05:52;;;;;;;10.45;4.85;;;;;;;-147.53;100.00;57128.34;10440547;28;20090;-79
2023/04/16 06:10:55;;;;;;;9.85;5.03;;;;;;;-147.53;100.00;57128.34;10455330;28;20044;-78
2023/04/16 06:15:57;;;;;;;8.85;4.25;;;;;;;-147.53;100.00;57128.34;10450853;28;20136;-79
2023/04/16 06:20:59;;;;;;;11.82;6.32;;;;;;;-147.53;100.00;57128.34;10443649;28;20144;-79
2023/04/16 06:26:01;;;;;;;13.55;4.97;;;;;;;-147.53;100.00;57128.34;10443982;28;20032;-80
2023/04/16 06:31:03;;;;;;;11.02;5.35;;;;;;;-147.53;100.00;57128.34;10441351;28;20052;-79
2023/04/16 06:36:04;;;;;;;11.45;4.88;;;;;;;-147.53;100.00;57128.34;10438831;28;21020;-78
2023/04/16 06:41:06;;;;;;;10.90;4.75;;;;;;;-147.53;100.00;57128.34;10442614;28;20496;-79
2023/04/16 06:46:08;;;;;;;11.70;5.85;;;;;;;-147.53;100.00;57128.34;10456073;28;20394;-80
2023/04/16 06:51:10;;;;;;;10.85;5.15;;;;;;;-147.53;100.00;57128.34;10440685;28;20542;-78
2023/04/16 06:56:12;;;;;;;13.15;5.25;;;;;;;-147.53;100.00;57128.34;10465099;28;20059;-78
2023/04/16 07:01:14;;;;;;;12.30;5.70;;;;;;;-147.53;100.00;57128.34;10464638;28;20049;-80
2023/04/16 07:06:16;;;;;;;11.32;4.85;;;;;;;-147.53;100.00;57128.34;10444809;28;20197;-79
2023/04/16 07:11:18;;;;;;;9.95;5.07;;;;;;;-147.53;100.00;57128.34;10450763;28;20059;-79
2023/04/16 07:16:20;;;;;;;10.23;5.03;;;;;;;-147.53;100.00;57128.34;10452997;28;20044;-79
2023/04/16 07:21:22;;;;;;;11.38;4.95;;;;;;;-147.53;100.00;57128.34;10456698;28;20107;-79
2023/04/16 07:26:25;;;;;;;12.88;5.53;;;;;;;-147.53;100.00;57128.34;10455022;28;20036;-79
2023/04/16 07:31:26;;;;;;;14.35;4.82;;;;;;;-147.53;100.00;57128.34;10434258;28;20044;-80
2023/04/16 07:36:29;;;;;;;11.77;6.07;;;;;;;-147.53;100.00;57128.34;10457030;28;20506;-80
2023/04/16 07:41:31;;;;;;;12.82;5.82;;;;;;;-147.53;100.00;57128.34;10469958;28;20051;-78
2023/04/16 07:46:32;;;;;;;11.30;5.10;;;;;;;-147.53;100.00;57128.34;10490399;28;20069;-79
2023/04/16 07:51:47;;;;;;;13.10;6.60;;;;;;;-147.53;100.00;57128.34;10461853;28;20058;-80
2023/04/16 07:56:49;;;;;;;12.73;5.97;;;;;;;-147.53;100.00;57128.34;10443524;28;20508;-77
2023/04/16 08:01:52;;;;;;;10.80;5.43;;;;;;;-147.53;100.00;57128.34;10432981;28;20095;-76
2023/04/16 08:06:54;;;;;;;14.38;5.72;;;;;;;-147.53;100.00;57128.34;10449581;28;20045;-77
2023/04/16 08:11:56;;;;;;;10.02;5.38;;;;;;;-147.53;100.00;57128.34;10457637;28;20536;-75
2023/04/16 08:16:57;;;;;;;12.77;5.72;;;;;;;-147.53;100.00;57128.34;10448206;28;20489;-75
2023/04/16 08:21:59;;;;;;;14.18;5.88;;;;;;;-147.53;100.00;57128.34;10453922;28;20059;-76
2023/04/16 08:27:01;;;;;;;11.23;4.85;;;;;;;-147.53;100.00;57128.34;10435687;28;20045;-76
2023/04/16 08:32:18;;;;;;;10.98;4.53;;;;;;;-147.53;100.00;57128.34;10437430;28;20049;-73
2023/04/16 08:37:20;;;;;;;10.05;4.70;;;;;;;-147.53;100.00;57128.34;10456442;28;20033;-76
2023/04/16 08:42:32;;;;;;;11.70;5.53;;;;;;;-147.53;100.00;57128.34;10462850;28;20056;-76
2023/04/16 08:47:37;;;;;;;13.32;5.45;;;;;;;-147.53;100.00;57128.34;10443950;28;20060;-76
2023/04/16 08:52:46;;;;;;;12.50;5.78;;;;;;;-147.53;100.00;57128.34;10457324;28;20055;-75
2023/04/16 08:57:56;;;;;;;11.80;5.38;;;;;;;-147.53;100.00;57128.34;10434236;28;20051;-77
2023/04/16 09:02:58;;;;;;;11.50;5.47;;;;;;;-147.53;100.00;57128.34;10434763;28;20053;-76
2023/04/16 09:08:00;;;;;;;10.15;4.30;;;;;;;-147.53;100.00;57128.34;10451049;28;20238;-77
2023/04/16 09:13:02;;;;;;;12.18;5.20;;;;;;;-147.53;100.00;57128.34;10430023;28;20127;-77
2023/04/16 09:18:04;;;;;;;10.70;4.80;;;;;;;-147.53;100.00;57128.34;10459914;28;20063;-77
2023/04/16 09:23:05;;;;;;;12.38;5.20;;;;;;;-147.53;100.00;57128.34;10434002;28;20071;-77
2023/04/16 09:28:08;;;;;;;12.80;5.47;;;;;;;-147.53;100.00;57128.34;10456671;28;20041;-77
2023/04/16 09:33:21;;;;;;;11.20;5.57;;;;;;;-147.53;100.00;57128.34;10461504;28;20052;-76
2023/04/16 09:38:25;;;;;;;14.02;4.95;;;;;;;-147.53;100.00;57128.34;10448018;28;20044;-77
2023/04/16 09:43:27;;;;;;;10.10;5.47;;;;;;;-147.53;100.00;57128.34;10457473;28;20043;-78
2023/04/16 09:48:32;;;;;;;11.23;4.43;;;;;;;-147.53;100.00;57128.34;10444390;28;20044;-77
2023/04/16 09:53:34;;;;;;;10.70;4.90;;;;;;;-147.53;100.00;57128.34;10463544;28;20059;-77
2023/04/16 09:58:37;;;;;;;11.02;4.60;;;;;;;-147.53;100.00;57128.34;10467056;28;20072;-77
2023/04/16 10:03:39;;;;;;;10.55;4.40;;;;;;;-147.53;100.00;57128.34;10466188;28;20389;-77
2023/04/16 10:08:47;;;;;;;14.50;4.82;;;;;;;-147.53;100.00;57128.34;10441986;28;20424;-78
2023/04/16 10:13:50;;;;;;;;;;;;;;;-147.53;100.00;57128.34;10460877;28;20045;-78
2023/04/16 10:18:53;;;;;;;10.07;4.00;;;;;;;-147.53;100.00;57128.34;10446260;28;19920;-79
2023/04/16 10:23:54;;;;;;;10.85;4.38;;;;;;;-147.53;100.00;57128.34;10442526;28;20052;-77
2023/04/16 10:28:57;;;;;;;10.95;4.95;;;;;;;-147.53;100.00;57128.34;10413758;28;20292;-78
2023/04/16 10:34:00;;;;;;;8.85;3.80;;;;;;;-147.53;100.00;57128.34;10436797;28;20044;-78
2023/04/16 10:39:02;;;;;;;10.02;3.70;;;;;;;-147.53;100.00;57128.34;10394231;28;20064;-80
2023/04/16 10:44:08;;;;;;;7.90;3.55;;;;;;;-147.53;100.00;57128.34;10407037;28;20103;-77
2023/04/16 10:49:26;;;;;;;8.80;4.03;;;;;;;-147.53;100.00;57128.34;10455297;28;20470;-77
2023/04/16 10:54:30;;;;;;;8.00;3.70;;;;;;;-147.53;100.00;57128.34;10445065;28;20045;-80
2023/04/16 10:59:34;;;;;;;9.30;4.57;;;;;;;-147.53;100.00;57128.34;10416988;28;20554;-77
2023/04/16 11:04:38;;;;;;;7.63;4.10;;;;;;;-147.53;100.00;57128.34;10385183;28;20163;-77
2023/04/16 11:09:46;;;;;;;8.85;4.40;;;;;;;-147.53;100.00;57128.34;10460463;28;20098;-78
2023/04/16 11:14:53;;;;;;;10.38;4.10;;;;;;;-147.53;100.00;57128.34;10452329;28;20119;-78
2023/04/16 11:19:55;;;;;;;6.45;3.20;;;;;;;-147.53;100.00;57128.34;10465669;28;20405;-77
2023/04/16 11:24:56;;;;;;;11.75;3.97;;;;;;;-147.53;100.00;57128.34;10455162;28;20040;-77
2023/04/16 11:29:59;;;;;;;6.55;3.20;;;;;;;-147.53;100.00;57128.34;10465391;28;20063;-77
2023/04/16 11:35:03;;;;;;;7.00;3.65;;;;;;;-147.53;100.00;57128.34;10446525;28;20048;-77
2023/04/16 11:40:08;;;;;;;11.27;4.05;;;;;;;-147.53;100.00;57128.34;10457858;28;20417;-77
2023/04/16 11:45:11;;;;;;;9.02;3.80;;;;;;;-147.53;100.00;57128.34;10453006;28;20536;-78
2023/04/16 11:50:20;;;;;;;6.18;2.83;;;;;;;-147.53;100.00;57128.34;10464745;28;20131;-78
2023/04/16 11:55:22;;;;;;;8.70;3.78;;;;;;;-147.53;100.00;57128.34;10447939;28;20524;-78
2023/04/16 12:00:34;;;;;;;8.88;4.18;;;;;;;-147.53;100.00;57128.34;10456480;28;20505;-78
2023/04/16 12:05:39;;;;;;;7.65;3.58;;;;;;;-147.53;100.00;57128.34;10465313;28;20056;-77
2023/04/16 12:10:54;;;;;;;7.95;3.47;;;;;;;-147.53;100.00;57128.34;10464076;28;20048;-79
2023/04/16 12:15:56;;;;;;;7.15;2.90;;;;;;;-147.53;100.00;57128.34;10478919;28;20048;-79
2023/04/16 12:20:58;;;;;;;7.97;3.40;;;;;;;-147.53;100.00;57128.34;10471366;28;20186;-76
2023/04/16 12:26:09;;;;;;;10.23;4.00;;;;;;;-147.53;100.00;57128.34;10479283;28;20043;-78
2023/04/16 12:31:11;;;;;;;7.55;3.63;;;;;;;-147.53;100.00;57128.34;10452475;28;20124;-78
2023/04/16 12:36:17;;;;;;;7.30;3.55;;;;;;;-147.53;100.00;57128.34;10468625;28;20043;-79
2023/04/16 12:41:20;;;;;;;6.53;3.13;;;;;;;-147.53;100.00;57128.34;10446652;28;20063;-78
2023/04/16 12:46:22;;;;;;;9.27;3.80;;;;;;;-147.53;100.00;57128.34;10461955;28;20052;-81
2023/04/16 12:51:25;;;;;;;7.63;3.42;;;;;;;-147.53;100.00;57128.34;10439358;28;20040;-79
2023/04/16 12:56:27;;;;;;;7.97;3.90;;;;;;;-147.53;100.00;57128.34;10463215;28;20497;-79
2023/04/16 13:01:29;;;;;;;6.68;3.10;;;;;;;-147.53;100.00;57128.34;10454098;28;20064;-78
2023/04/16 13:06:32;;;;;;;7.60;3.38;;;;;;;-147.53;100.00;57128.34;10455459;28;20782;-78
2023/04/16 13:11:34;;;;;;;8.25;3.65;;;;;;;-147.53;100.00;57128.34;10453910;28;20045;-78
2023/04/16 13:16:37;;;;;;;8.05;3.67;;;;;;;-147.53;100.00;57128.34;10452838;28;20087;-78
2023/04/16 13:21:39;;;;;;;7.57;4.00;;;;;;;-147.53;100.00;57128.34;10468477;28;20072;-79
2023/04/16 13:26:41;;;;;;;7.63;3.38;;;;;;;-147.53;100.00;57128.34;10476825;28;20048;-79
2023/04/16 13:31:43;;;;;;;7.88;3.42;;;;;;;-147.53;100.00;57128.34;10454327;28;20453;-80
2023/04/16 13:36:45;;;;;;;7.90;2.80;;;;;;;-147.53;100.00;57128.34;10459424;28;20239;-78
2023/04/16 13:41:47;;;;;;;9.38;3.47;;;;;;;-147.53;100.00;57128.34;10460727;28;20143;-79
2023/04/16 13:46:49;;;;;;;7.25;3.90;;;;;;;-147.53;100.00;57128.34;10462886;28;20047;-78
2023/04/16 13:51:51;;;;;;;8.38;3.67;;;;;;;-147.53;100.00;57128.34;10465436;28;20041;-78
2023/04/16 13:56:53;;;;;;;8.25;3.90;;;;;;;-147.53;100.00;57128.34;10444103;28;20428;-79
2023/04/16 14:01:54;;;;;;;9.60;3.90;;;;;;;-147.53;100.00;57128.34;10449023;28;20048;-79
2023/04/16 14:06:56;;;;;;;7.75;3.75;;;;;;;-147.53;100.00;57128.34;10451603;28;20049;-79
2023/04/16 14:11:57;;;;;;;7.90;4.07;;;;;;;-147.53;100.00;57128.34;10457308;28;20424;-78
2023/04/16 14:17:02;;;;;;;8.82;3.63;;;;;;;-147.53;100.00;57128.34;10463994;28;20045;-78
2023/04/16 14:22:03;;;;;;;9.10;3.60;;;;;;;-147.53;100.00;57128.34;10464121;28;20048;-79
2023/04/16 14:27:06;;;;;;;8.30;2.95;;;;;;;-147.53;100.00;57128.34;10453741;28;20140;-78
2023/04/16 14:32:08;;;;;;;8.10;2.88;;;;;;;-147.53;100.00;57128.34;10442330;28;20122;-79
2023/04/16 14:37:10;;;;;;;5.15;2.72;;;;;;;-147.53;100.00;57128.34;10465256;28;20040;-78
2023/04/16 14:42:11;;;;;;;7.88;3.35;;;;;;;-147.53;100.00;57128.34;10465908;28;20488;-78
2023/04/16 14:47:13;;;;;;;5.80;2.78;;;;;;;-147.53;100.00;57128.34;10465098;28;20505;-76
2023/04/16 14:52:15;;;;;;;8.73;3.70;;;;;;;-147.53;100.00;57128.34;10475774;28;20087;-78
2023/04/16 14:57:17;;;;;;;8.23;4.03;;;;;;;-147.53;100.00;57128.34;10464012;28;20064;-78
2023/04/16 15:02:20;;;;;;;9.45;4.07;;;;;;;-147.53;100.00;57128.34;10465959;28;20044;-77
2023/04/16 15:07:21;;;;;;;11.27;3.78;;;;;;;-147.53;100.00;57128.34;10464268;28;20540;-78
2023/04/16 15:12:23;;;;;;;7.13;3.40;;;;;;;-147.53;100.00;57128.34;10464882;28;20048;-77
2023/04/16 15:17:25;;;;;;;7.50;3.15;;;;;;;-147.53;100.00;57128.34;10463104;28;20054;-77
2023/04/16 15:22:27;;;;;;;7.28;3.22;;;;;;;-147.53;100.00;57128.34;10455823;28;20040;-78
2023/04/16 15:27:28;;;;;;;6.40;3.00;;;;;;;-147.53;100.00;57128.34;10439842;28;20255;-79
2023/04/16 15:32:30;;;;;;;6.82;3.25;;;;;;;-147.53;100.00;57128.34;10446107;28;20033;-76
2023/04/16 15:37:32;;;;;;;10.32;4.05;;;;;;;-147.53;100.00;57128.34;10454084;28;20476;-78
2023/04/16 15:42:34;;;;;;;7.43;3.83;;;;;;;-147.53;100.00;57128.34;10455824;28;20048;-78
2023/04/16 15:47:37;;;;;;;6.25;2.83;;;;;;;-147.53;100.00;57128.34;10455518;28;20052;-76
2023/04/16 15:52:42;;;;;;;7.80;3.85;;;;;;;-147.53;100.00;57128.34;10456338;28;20045;-76
2023/04/16 15:57:43;;;;;;;10.93;3.95;;;;;;;-147.53;100.00;57128.34;10465058;28;20059;-76
2023/04/16 16:02:46;;;;;;;8.73;3.80;;;;;;;-147.53;100.00;57128.34;10456285;28;20033;-76
2023/04/16 16:07:48;;;;;;;8.85;4.28;;;;;;;-147.53;100.00;57128.34;10463648;28;20079;-77
2023/04/16 16:12:49;;;;;;;10.20;4.20;;;;;;;-147.53;100.00;57128.34;10469005;28;20115;-77
2023/04/16 16:17:52;;;;;;;8.23;4.45;;;;;;;-147.53;100.00;57128.34;10461594;28;20610;-78
2023/04/16 16:22:55;;;;;;;10.07;5.05;;;;;;;-147.53;100.00;57128.34;10461495;28;20497;-78
2023/04/16 16:27:57;;;;;;;9.10;4.40;;;;;;;-147.53;100.00;57128.34;10446761;28;20041;-78
2023/04/16 16:32:59;;;;;;;10.45;4.60;;;;;;;-147.53;100.00;57128.34;10447816;28;20420;-78
2023/04/16 16:38:01;;;;;;;9.43;4.82;;;;;;;-147.53;100.00;57128.34;10462316;28;20421;-77
2023/04/16 16:43:04;;;;;;;9.43;4.07;;;;;;;-147.53;100.00;57128.34;10457178;28;20045;-77
2023/04/16 16:48:06;;;;;;;9.23;4.63;;;;;;;-147.53;100.00;57128.34;10464377;28;20040;-77
2023/04/16 16:53:08;;;;;;;8.93;4.20;;;;;;;-147.53;100.00;57128.34;10444660;28;20076;-77
2023/04/16 16:58:11;;;;;;;14.35;4.85;;;;;;;-147.53;100.00;57128.34;10451996;28;20432;-77
2023/04/16 17:03:12;;;;;;;8.57;4.18;;;;;;;-147.53;100.00;57128.34;10460764;28;20128;-78
2023/04/16 17:08:15;;;;;;;12.85;5.63;;;;;;;-147.53;100.00;57128.34;10456067;28;20813;-78
2023/04/16 17:13:20;;;;;;;12.43;5.80;;;;;;;-147.53;100.00;57128.34;10461521;28;20094;-78
2023/04/16 17:18:23;;;;;;;17.02;6.07;;;;;;;-147.53;100.00;57128.34;10460881;28;20060;-76
2023/04/16 17:23:25;;;;;;;11.88;5.88;;;;;;;-147.53;100.00;57128.34;10440233;28;20048;-78
2023/04/16 17:28:26;;;;;;;11.70;5.70;;;;;;;-147.53;100.00;57128.34;10459131;28;20043;-79
2023/04/16 17:33:29;;;;;;;11.90;6.18;;;;;;;-147.53;100.00;57128.34;10455322;28;20528;-77
2023/04/16 17:38:32;;;;;;;12.93;6.20;;;;;;;-147.53;100.00;57128.34;10452649;28;20040;-75
2023/04/16 17:43:34;;;;;;;13.20;6.82;;;;;;;-147.53;100.00;57128.34;10438629;28;20344;-76
2023/04/16 17:48:36;;;;;;;11.15;5.68;;;;;;;-147.53;100.00;57128.34;10419318;28;20075;-75
2023/04/16 17:53:37;;;;;;;12.85;6.45;;;;;;;-147.53;100.00;57128.34;10431479;28;21485;-75
2023/04/16 17:58:40;;;;;;;13.02;6.07;;;;;;;-147.53;100.00;57128.34;10466249;28;20123;-77
2023/04/16 18:03:43;;;;;;;13.95;6.53;;;;;;;-147.53;100.00;57128.34;10442959;28;20048;-76
2023/04/16 18:08:45;;;;;;;14.00;6.90;;;;;;;-147.53;100.00;57128.34;10466296;28;20087;-74
2023/04/16 18:13:46;;;;;;;12.43;6.40;;;;;;;-147.53;100.00;57128.34;10448671;28;20041;-74
2023/04/16 18:18:48;;;;;;;19.35;7.10;;;;;;;-147.53;100.00;57128.34;10465759;28;20094;-74
2023/04/16 18:23:49;;;;;;;13.43;6.07;;;;;;;-147.53;100.00;57128.34;10466126;28;20056;-75
2023/04/16 18:28:51;;;;;;;14.23;6.82;;;;;;;-147.53;100.00;57128.34;10474107;28;20501;-76
2023/04/16 18:33:53;;;;;;;12.35;6.93;;;;;;;-147.53;100.00;57128.34;10448339;28;20040;-75
2023/04/16 18:38:59;;;;;;;14.88;7.25;;;;;;;-147.53;100.00;57128.34;10435164;28;20033;-75
2023/04/16 18:44:03;;;;;;;13.13;6.88;;;;;;;-147.53;100.00;57128.34;10447942;28;20067;-75
2023/04/16 18:49:04;;;;;;;14.15;6.88;;;;;;;-147.53;100.00;57128.34;10437089;28;20049;-75
2023/04/16 18:54:06;;;;;;;12.05;6.28;;;;;;;-147.53;100.00;57128.34;10446873;28;20052;-74
2023/04/16 18:59:08;;;;;;;13.18;6.43;;;;;;;-147.53;100.00;57128.34;10457127;28;20409;-74
2023/04/16 19:04:09;;;;;;;15.00;6.68;;;;;;;-147.53;100.00;57128.34;10465111;28;20037;-74
2023/04/16 19:09:12;;;;;;;15.35;6.10;;;;;;;-147.53;100.00;57128.34;10458356;28;20094;-75
2023/04/16 19:14:13;;;;;;;13.18;5.60;;;;;;;-147.53;100.00;57128.34;10461148;28;20067;-75
2023/04/16 19:19:16;;;;;;;9.98;5.20;;;;;;;-147.53;100.00;57128.34;10452513;28;20405;-74
2023/04/16 19:24:18;;;;;;;12.20;5.20;;;;;;;-147.53;100.00;57128.34;10458368;28;20076;-74
2023/04/16 19:29:20;;;;;;;11.07;5.38;;;;;;;-147.53;100.00;57128.34;10452083;28;20058;-74
2023/04/16 19:34:21;;;;;;;13.77;5.43;;;;;;;-147.53;100.00;57128.34;10473982;28;20063;-74
2023/04/16 19:39:30;;;;;;;11.07;5.80;;;;;;;-147.53;100.00;57128.34;10452796;28;20501;-74
2023/04/16 19:44:31;;;;;;;13.23;6.30;;;;;;;-147.53;100.00;57128.34;10435473;28;20041;-74
2023/04/16 19:49:33;;;;;;;13.57;5.90;;;;;;;-147.53;100.00;57128.34;10453640;28;20070;-74
2023/04/16 19:54:36;;;;;;;11.65;5.32;;;;;;;-147.53;100.00;57128.34;10429021;28;20044;-74
2023/04/16 19:59:38;;;;;;;12.57;5.80;;;;;;;-147.53;100.00;57128.34;10477298;28;20054;-74
2023/04/16 20:04:39;;;;;;;12.75;6.05;;;;;;;-147.53;100.00;57128.34;10462681;28;20044;-74
2023/04/16 20:09:41;;;;;;;13.75;6.45;;;;;;;-147.53;100.00;57128.34;10462405;28;20036;-74
2023/04/16 20:14:42;;;;;;;11.82;6.07;;;;;;;-147.53;100.00;57128.34;10455220;28;20138;-74
2023/04/16 20:19:48;;;;;;;13.73;6.15;;;;;;;-147.53;100.00;57128.34;10444175;28;20737;-74
2023/04/16 20:24:53;;;;;;;11.25;6.05;;;;;;;-147.53;100.00;57128.34;10436593;28;20417;-76
2023/04/16 20:29:55;;;;;;;20.80;6.95;;;;;;;-147.53;100.00;57128.34;10469756;28;20048;-74
2023/04/16 20:34:57;;;;;;;16.45;7.38;;;;;;;-147.53;100.00;57128.34;10459643;28;20040;-75
2023/04/16 20:39:58;;;;;;;16.38;6.22;;;;;;;-147.53;100.00;57128.34;10456872;28;20574;-75
2023/04/16 20:45:00;;;;;;;14.85;7.03;;;;;;;-147.53;100.00;57128.34;10463368;28;20332;-74
2023/04/16 20:50:02;;;;;;;12.93;6.55;;;;;;;-147.53;100.00;57128.34;10453385;28;20045;-74
2023/04/16 20:55:04;;;;;;;16.40;8.50;;;;;;;-147.53;100.00;57128.34;10448061;28;20348;-74
2023/04/16 21:00:09;;;;;;;19.92;8.73;;;;;;;-147.53;100.00;57128.34;10474254;28;20052;-74
2023/04/16 21:05:13;;;;;;;14.52;7.25;;;;;;;-147.53;100.00;57128.34;10465239;28;20071;-74
2023/04/16 21:10:18;;;;;;;14.05;7.30;;;;;;;-147.53;100.00;57128.34;10468990;28;20036;-74
2023/04/16 21:15:20;;;;;;;17.42;7.82;;;;;;;-147.53;100.00;57128.34;10468580;28;20063;-74
2023/04/16 21:20:22;;;;;;;15.50;7.35;;;;;;;-147.53;100.00;57128.34;10465210;28;20065;-74
2023/04/16 21:25:23;;;;;;;20.58;8.52;;;;;;;-147.53;100.00;57128.34;10443674;28;20040;-74
2023/04/16 21:30:25;;;;;;;17.17;7.63;;;;;;;-147.53;100.00;57128.34;10465831;28;20036;-75
2023/04/16 21:35:30;;;;;;;16.70;7.18;;;;;;;-147.53;100.00;57128.34;10475759;28;20163;-74
2023/04/16 21:40:32;;;;;;;15.35;7.43;;;;;;;-147.53;100.00;57128.34;10470610;28;20049;-74
2023/04/16 21:45:33;;;;;;;17.08;7.60;;;;;;;-147.53;100.00;57128.34;10473048;28;20047;-74
2023/04/16 21:50:35;;;;;;;16.98;7.90;;;;;;;-147.53;100.00;57128.34;10444604;28;20116;-74
2023/04/16 21:55:39;;;;;;;14.43;7.68;;;;;;;-147.53;100.00;57128.34;10463241;28;20045;-74
2023/04/16 22:00:41;;;;;;;15.80;7.65;;;;;;;-147.53;100.00;57128.34;10467534;28;20424;-74
2023/04/16 22:05:43;;;;;;;13.77;6.47;;;;;;;-147.53;100.00;57128.34;10461381;28;20036;-74
2023/04/16 22:10:45;;;;;;;12.75;5.90;;;;;;;-147.53;100.00;57128.34;10452333;28;20060;-74
2023/04/16 22:15:46;;;;;;;11.40;6.10;;;;;;;-147.53;100.00;57128.34;10441471;28;20044;-74
2023/04/16 22:20:49;;;;;;;10.15;5.35;;;;;;;-147.53;100.00;57128.34;10452257;28;20413;-74
2023/04/16 22:25:53;;;;;;;13.10;6.15;;;;;;;-147.53;100.00;57128.34;10449730;28;20040;-75
2023/04/16 22:30:55;;;;;;;13.23;6.25;;;;;;;-147.53;100.00;57128.34;10450114;28;20044;-74